Language: 


Des rapports , des résumés tant et plus, au choix de chacun....


Données statistiques de la station
Quotidien Rapport Février 9, 2017 Unités:  Anglais    Métrique   les deux
« Précédent Jour
Suivant Jour »
Quotidien Hebdomadaire Mensuel Annuel Actuel
  Haut: Bas: Moyen:
Température: TemperatureC °F 0.9 °F 2.1 °F
Pt de rosée: DewpointC °F 0.4 °F 1.8 °F
Humidité: Humidity % 96 % 98 %
Vitesse du vent: WindSpeedKMH mph 1.4 mph 8.8 mph
Rafales: WindSpeedGustKMH mph - -
Vent:- - ENE
Pression: PressurehPa in 1021.9 in -
Précipitation: 0.0 in    
Historical Graphs
 
 
Données statistiques pour Février 9, 2017
Heure Température Point de rosée Pression Vent Vitesse du vent Refales Humidité Pluie (taux horaire)
TemperatureC °F DewpointC °F PressurehPa in Calm     Humidity % HourlyPrecipMM in
00:03 2.7 °F 2.3 °F 1027.0 in NNW 8.7 mph 13.0 mph 97 % 0.0 in
00:08 2.7 °F 2.3 °F 1027.0 in NNE 9.0 mph 13.0 mph 97 % 0.0 in
00:13 2.7 °F 2.3 °F 1027.0 in NNE 10.5 mph 14.0 mph 97 % 0.0 in
00:18 2.7 °F 2.4 °F 1027.0 in NE 10.1 mph 14.0 mph 98 % 0.0 in
00:23 2.7 °F 2.4 °F 1027.0 in NNE 4.7 mph 12.6 mph 98 % 0.0 in
00:28 2.7 °F 2.4 °F 1027.0 in NE 7.9 mph 12.6 mph 98 % 0.0 in
00:33 2.7 °F 2.4 °F 1027.0 in NNE 6.9 mph 11.9 mph 98 % 0.0 in
00:38 2.7 °F 2.4 °F 1027.0 in North 8.7 mph 11.9 mph 98 % 0.0 in
00:43 2.7 °F 2.4 °F 1027.0 in NNE 5.0 mph 9.7 mph 98 % 0.0 in
00:48 2.7 °F 2.4 °F 1027.0 in NNE 9.7 mph 12.2 mph 98 % 0.0 in
00:53 2.7 °F 2.4 °F 1026.0 in NE 6.9 mph 12.2 mph 98 % 0.0 in
00:58 2.7 °F 2.4 °F 1026.0 in NNE 5.5 mph 10.1 mph 98 % 0.0 in
01:03 2.7 °F 2.4 °F 1026.0 in NNE 5.5 mph 10.1 mph 98 % 0.0 in
01:08 2.7 °F 2.4 °F 1027.0 in North 6.1 mph 10.5 mph 98 % 0.0 in
01:13 2.7 °F 2.4 °F 1027.0 in NE 7.9 mph 10.5 mph 98 % 0.0 in
01:18 2.7 °F 2.4 °F 1027.0 in NE 10.1 mph 10.5 mph 98 % 0.0 in
01:23 2.7 °F 2.4 °F 1027.0 in NE 7.9 mph 11.6 mph 98 % 0.0 in
01:28 2.7 °F 2.4 °F 1027.0 in NE 10.1 mph 11.6 mph 98 % 0.0 in
01:33 2.7 °F 2.4 °F 1027.0 in NE 9.0 mph 10.1 mph 98 % 0.0 in
01:38 2.6 °F 2.3 °F 1027.0 in NE 10.1 mph 11.9 mph 98 % 0.0 in
01:43 2.6 °F 2.3 °F 1027.0 in NE 9.7 mph 12.6 mph 98 % 0.0 in
01:48 2.4 °F 2.2 °F 1027.0 in NE 9.3 mph 12.6 mph 98 % 0.0 in
01:53 2.4 °F 2.2 °F 1027.0 in NE 10.8 mph 12.2 mph 98 % 0.0 in
01:58 2.4 °F 2.2 °F 1027.0 in NE 9.3 mph 12.2 mph 98 % 0.0 in
02:03 2.3 °F 2.1 °F 1027.0 in NE 10.5 mph 13.0 mph 98 % 0.0 in
02:08 2.3 °F 2.1 °F 1026.0 in NE 9.3 mph 13.0 mph 98 % 0.0 in
02:13 2.3 °F 2.1 °F 1026.0 in NNE 12.2 mph 13.0 mph 98 % 0.0 in
02:18 2.3 °F 2.1 °F 1026.0 in NE 5.8 mph 12.2 mph 98 % 0.0 in
02:23 2.3 °F 2.1 °F 1027.0 in NE 9.0 mph 14.0 mph 98 % 0.0 in
02:28 2.3 °F 1.9 °F 1027.0 in NNE 5.5 mph 14.0 mph 98 % 0.0 in
02:33 2.3 °F 1.9 °F 1027.0 in NNE 10.1 mph 13.0 mph 98 % 0.0 in
02:38 2.3 °F 1.9 °F 1026.0 in NNE 9.3 mph 12.6 mph 98 % 0.0 in
02:43 2.3 °F 1.9 °F 1026.0 in ENE 9.0 mph 12.6 mph 98 % 0.0 in
02:48 2.3 °F 1.9 °F 1026.0 in ENE 8.7 mph 11.1 mph 98 % 0.0 in
02:53 2.3 °F 1.9 °F 1027.0 in NNE 12.2 mph 12.2 mph 98 % 0.0 in
02:58 2.3 °F 1.9 °F 1027.0 in NNE 10.8 mph 12.6 mph 98 % 0.0 in
03:03 2.3 °F 1.9 °F 1027.0 in NNE 13.0 mph 13.0 mph 98 % 0.0 in
03:08 2.2 °F 1.9 °F 1027.0 in NE 11.9 mph 13.0 mph 98 % 0.0 in
03:13 2.2 °F 1.9 °F 1027.0 in NE 8.7 mph 13.0 mph 98 % 0.0 in
03:18 2.2 °F 1.9 °F 1027.0 in NNE 6.9 mph 13.0 mph 98 % 0.0 in
03:23 2.2 °F 1.9 °F 1026.0 in NE 11.9 mph 13.0 mph 98 % 0.0 in
03:28 2.1 °F 1.8 °F 1026.0 in NNE 7.9 mph 13.0 mph 98 % 0.0 in
03:33 2.1 °F 1.8 °F 1026.0 in North 9.0 mph 13.0 mph 98 % 0.0 in
03:38 2.1 °F 1.8 °F 1027.0 in NE 10.1 mph 13.0 mph 98 % 0.0 in
03:43 2.1 °F 1.8 °F 1027.0 in NNE 6.4 mph 12.2 mph 98 % 0.0 in
03:48 2.1 °F 1.8 °F 1027.0 in NE 5.5 mph 12.2 mph 98 % 0.0 in
03:53 2.1 °F 1.8 °F 1026.0 in NNE 9.0 mph 10.8 mph 98 % 0.0 in
03:58 2.1 °F 1.8 °F 1026.0 in NE 6.4 mph 10.5 mph 98 % 0.0 in
04:03 2.1 °F 1.8 °F 1026.0 in North 9.0 mph 12.2 mph 98 % 0.0 in
04:08 2.1 °F 1.8 °F 1026.0 in NNE 10.1 mph 12.2 mph 98 % 0.0 in
04:13 2.1 °F 1.8 °F 1026.0 in NE 10.5 mph 13.0 mph 98 % 0.0 in
04:18 1.9 °F 1.7 °F 1026.0 in NE 11.9 mph 13.7 mph 98 % 0.0 in
04:23 1.9 °F 1.7 °F 1026.0 in NE 8.7 mph 14.0 mph 98 % 0.0 in
04:28 1.9 °F 1.7 °F 1026.0 in ENE 13.7 mph 14.0 mph 98 % 0.0 in
04:33 1.9 °F 1.7 °F 1026.0 in NE 12.2 mph 14.0 mph 98 % 0.0 in
04:38 1.9 °F 1.7 °F 1026.0 in NE 10.1 mph 14.0 mph 98 % 0.0 in
04:43 1.9 °F 1.7 °F 1026.0 in NE 9.7 mph 14.0 mph 98 % 0.0 in
04:48 1.9 °F 1.6 °F 1026.0 in NE 10.5 mph 14.0 mph 98 % 0.0 in
04:53 1.9 °F 1.7 °F 1026.0 in NE 9.3 mph 14.0 mph 98 % 0.0 in
04:58 1.9 °F 1.6 °F 1026.0 in NE 11.9 mph 16.3 mph 98 % 0.0 in
05:03 1.9 °F 1.6 °F 1026.0 in NE 8.7 mph 16.3 mph 98 % 0.0 in
05:08 1.9 °F 1.6 °F 1026.0 in NE 12.2 mph 16.3 mph 98 % 0.0 in
05:13 1.9 °F 1.6 °F 1026.0 in NE 9.3 mph 13.7 mph 98 % 0.0 in
05:18 1.9 °F 1.6 °F 1026.0 in NE 12.6 mph 13.7 mph 98 % 0.0 in
05:23 1.9 °F 1.6 °F 1026.0 in NE 13.7 mph 13.7 mph 98 % 0.0 in
05:28 1.9 °F 1.6 °F 1026.0 in NE 5.8 mph 13.7 mph 98 % 0.0 in
05:33 1.9 °F 1.6 °F 1026.0 in NNE 12.2 mph 14.0 mph 98 % 0.0 in
05:38 1.8 °F 1.5 °F 1026.0 in NE 11.9 mph 14.0 mph 98 % 0.0 in
05:43 1.8 °F 1.5 °F 1026.0 in NE 10.1 mph 14.0 mph 98 % 0.0 in
05:48 1.8 °F 1.5 °F 1026.0 in NE 8.7 mph 14.3 mph 98 % 0.0 in
05:53 1.8 °F 1.5 °F 1026.0 in NE 9.3 mph 14.3 mph 98 % 0.0 in
05:58 1.8 °F 1.5 °F 1026.0 in ENE 10.1 mph 14.0 mph 98 % 0.0 in
06:03 1.8 °F 1.5 °F 1026.0 in NE 9.7 mph 14.0 mph 98 % 0.0 in
06:08 1.8 °F 1.5 °F 1026.0 in NE 10.1 mph 15.4 mph 98 % 0.0 in
06:13 1.8 °F 1.5 °F 1026.0 in NE 9.7 mph 15.4 mph 98 % 0.0 in
06:18 1.8 °F 1.5 °F 1026.0 in NNE 10.1 mph 12.6 mph 98 % 0.0 in
06:23 1.8 °F 1.5 °F 1026.0 in NE 9.0 mph 12.6 mph 98 % 0.0 in
06:28 1.7 °F 1.4 °F 1026.0 in NE 8.7 mph 14.0 mph 98 % 0.0 in
06:33 1.7 °F 1.4 °F 1026.0 in NNE 10.5 mph 14.0 mph 98 % 0.0 in
06:38 1.8 °F 1.5 °F 1026.0 in NE 10.5 mph 13.7 mph 98 % 0.0 in
06:43 1.8 °F 1.5 °F 1026.0 in NE 9.0 mph 12.6 mph 98 % 0.0 in
06:48 1.8 °F 1.5 °F 1026.0 in NNE 9.7 mph 12.6 mph 98 % 0.0 in
06:53 1.8 °F 1.5 °F 1026.0 in NE 9.3 mph 12.6 mph 98 % 0.0 in
06:58 1.7 °F 1.4 °F 1026.0 in NE 9.7 mph 14.0 mph 98 % 0.0 in
07:03 1.8 °F 1.5 °F 1026.0 in NE 6.9 mph 14.0 mph 98 % 0.0 in
07:08 1.8 °F 1.5 °F 1026.0 in NNE 7.9 mph 12.2 mph 98 % 0.0 in
07:13 1.8 °F 1.5 °F 1026.0 in NNE 6.1 mph 11.9 mph 98 % 0.0 in
07:18 1.8 °F 1.5 °F 1026.0 in NE 8.7 mph 13.0 mph 98 % 0.0 in
07:23 1.8 °F 1.5 °F 1026.0 in NNW 12.2 mph 13.0 mph 98 % 0.0 in
07:28 1.8 °F 1.5 °F 1026.0 in NNE 10.1 mph 13.0 mph 98 % 0.0 in
07:33 1.8 °F 1.5 °F 1026.0 in NE 9.7 mph 12.2 mph 98 % 0.0 in
07:38 1.8 °F 1.5 °F 1026.0 in NE 7.9 mph 11.9 mph 98 % 0.0 in
07:43 1.8 °F 1.5 °F 1026.0 in NNE 6.9 mph 11.9 mph 98 % 0.0 in
07:48 1.8 °F 1.5 °F 1026.0 in NE 6.4 mph 13.0 mph 98 % 0.0 in
07:53 1.7 °F 1.4 °F 1026.0 in NNE 7.6 mph 13.0 mph 98 % 0.0 in
07:58 1.7 °F 1.4 °F 1026.0 in NE 10.5 mph 12.6 mph 98 % 0.0 in
08:03 1.8 °F 1.5 °F 1026.0 in North 9.0 mph 12.2 mph 98 % 0.0 in
08:08 1.7 °F 1.4 °F 1026.0 in NNE 12.2 mph 12.2 mph 98 % 0.0 in
08:13 1.7 °F 1.4 °F 1026.0 in NE 9.0 mph 13.0 mph 98 % 0.0 in
08:18 1.7 °F 1.4 °F 1026.0 in NE 6.4 mph 13.0 mph 98 % 0.0 in
08:22 1.8 °F 1.5 °F 1026.0 in NE 7.9 mph 12.2 mph 98 % 0.0 in
08:27 1.7 °F 1.4 °F 1026.0 in NNE 9.7 mph 13.0 mph 98 % 0.0 in
08:28 1.7 °F 1.4 °F 1026.0 in NE 10.5 mph 13.0 mph 98 % 0.0 in
08:33 1.7 °F 1.4 °F 1026.0 in NNE 10.5 mph 13.7 mph 98 % 0.0 in
08:38 1.7 °F 1.4 °F 1026.0 in NE 10.1 mph 13.7 mph 98 % 0.0 in
08:43 1.7 °F 1.4 °F 1026.0 in NE 12.2 mph 13.7 mph 98 % 0.0 in
08:48 1.7 °F 1.4 °F 1026.0 in NE 9.0 mph 13.7 mph 98 % 0.0 in
08:53 1.7 °F 1.4 °F 1026.0 in NE 9.3 mph 13.0 mph 98 % 0.0 in
08:58 1.7 °F 1.4 °F 1026.0 in NE 10.1 mph 13.0 mph 98 % 0.0 in
09:03 1.7 °F 1.4 °F 1026.0 in NE 10.1 mph 13.0 mph 98 % 0.0 in
09:08 1.7 °F 1.4 °F 1027.0 in ENE 7.6 mph 12.2 mph 98 % 0.0 in
09:13 1.8 °F 1.5 °F 1027.0 in NE 9.3 mph 12.2 mph 98 % 0.0 in
09:18 1.8 °F 1.5 °F 1027.0 in NE 9.7 mph 16.3 mph 98 % 0.0 in
09:23 1.8 °F 1.5 °F 1026.0 in NE 10.5 mph 16.3 mph 98 % 0.0 in
09:28 1.8 °F 1.5 °F 1026.0 in NE 9.0 mph 12.6 mph 98 % 0.0 in
09:33 1.7 °F 1.4 °F 1026.0 in NE 10.8 mph 14.0 mph 98 % 0.0 in
09:38 1.7 °F 1.4 °F 1026.0 in NNE 6.1 mph 14.0 mph 98 % 0.0 in
09:43 1.7 °F 1.4 °F 1026.0 in NE 10.1 mph 14.0 mph 98 % 0.0 in
09:48 1.7 °F 1.4 °F 1026.0 in ENE 10.5 mph 14.0 mph 98 % 0.0 in
09:53 1.7 °F 1.4 °F 1026.0 in ENE 8.7 mph 13.0 mph 98 % 0.0 in
09:58 1.7 °F 1.4 °F 1026.0 in ENE 7.6 mph 12.6 mph 98 % 0.0 in
10:03 1.7 °F 1.4 °F 1026.0 in NNE 11.9 mph 13.7 mph 98 % 0.0 in
10:08 1.7 °F 1.4 °F 1026.0 in NNE 9.0 mph 13.7 mph 98 % 0.0 in
10:13 1.7 °F 1.4 °F 1026.0 in NE 10.5 mph 13.0 mph 98 % 0.0 in
10:18 1.6 °F 1.3 °F 1026.0 in NE 8.7 mph 14.8 mph 98 % 0.0 in
10:23 1.6 °F 1.3 °F 1026.0 in NE 11.9 mph 14.8 mph 98 % 0.0 in
10:28 1.6 °F 1.3 °F 1026.0 in NE 9.3 mph 14.0 mph 98 % 0.0 in
10:33 1.7 °F 1.4 °F 1026.0 in NE 10.1 mph 14.0 mph 98 % 0.0 in
10:38 1.7 °F 1.4 °F 1026.0 in NE 13.7 mph 14.0 mph 98 % 0.0 in
10:43 1.7 °F 1.4 °F 1026.0 in NNE 12.2 mph 13.7 mph 98 % 0.0 in
10:48 1.7 °F 1.4 °F 1026.0 in NE 12.2 mph 14.0 mph 98 % 0.0 in
10:53 1.8 °F 1.5 °F 1026.0 in NE 7.9 mph 14.0 mph 98 % 0.0 in
10:58 1.9 °F 1.6 °F 1026.0 in NE 9.3 mph 13.0 mph 98 % 0.0 in
11:03 1.9 °F 1.6 °F 1026.0 in NE 12.6 mph 12.6 mph 98 % 0.0 in
11:08 1.9 °F 1.6 °F 1026.0 in NE 10.5 mph 12.6 mph 98 % 0.0 in
11:13 1.9 °F 1.7 °F 1026.0 in NNE 9.3 mph 13.0 mph 98 % 0.0 in
11:18 1.9 °F 1.7 °F 1026.0 in ENE 11.9 mph 14.0 mph 98 % 0.0 in
11:23 2.1 °F 1.8 °F 1026.0 in ENE 10.1 mph 14.0 mph 98 % 0.0 in
11:28 2.1 °F 1.8 °F 1026.0 in NE 11.6 mph 14.0 mph 98 % 0.0 in
11:33 2.2 °F 1.9 °F 1026.0 in East 10.5 mph 14.0 mph 98 % 0.0 in
11:38 2.2 °F 1.9 °F 1026.0 in ENE 9.7 mph 13.7 mph 98 % 0.0 in
11:43 2.2 °F 1.9 °F 1026.0 in NNE 9.0 mph 11.9 mph 98 % 0.0 in
11:48 2.2 °F 1.9 °F 1026.0 in NE 6.1 mph 11.6 mph 98 % 0.0 in
11:53 2.2 °F 1.9 °F 1026.0 in NE 9.0 mph 12.2 mph 98 % 0.0 in
11:58 2.3 °F 1.9 °F 1026.0 in ENE 10.1 mph 12.2 mph 98 % 0.0 in
12:03 2.3 °F 1.9 °F 1026.0 in NE 9.0 mph 11.6 mph 98 % 0.0 in
12:08 2.3 °F 2.1 °F 1026.0 in NE 9.7 mph 10.5 mph 98 % 0.0 in
12:13 2.3 °F 2.1 °F 1026.0 in NE 7.6 mph 10.5 mph 98 % 0.0 in
12:18 2.3 °F 2.1 °F 1026.0 in NNE 10.1 mph 10.5 mph 98 % 0.0 in
12:23 2.3 °F 2.1 °F 1026.0 in East 8.7 mph 10.8 mph 98 % 0.0 in
12:28 2.3 °F 2.1 °F 1026.0 in ENE 9.7 mph 11.9 mph 98 % 0.0 in
12:33 2.3 °F 2.1 °F 1026.0 in ENE 5.8 mph 11.9 mph 98 % 0.0 in
12:38 2.3 °F 2.1 °F 1024.9 in ENE 5.8 mph 10.1 mph 98 % 0.0 in
12:43 2.3 °F 2.1 °F 1024.9 in ENE 8.7 mph 10.1 mph 98 % 0.0 in
12:48 2.4 °F 2.2 °F 1024.9 in ENE 9.3 mph 10.1 mph 98 % 0.0 in
12:53 2.4 °F 2.2 °F 1024.9 in NE 9.7 mph 10.1 mph 98 % 0.0 in
12:58 2.6 °F 2.3 °F 1024.9 in NE 6.9 mph 10.1 mph 98 % 0.0 in
13:03 2.6 °F 2.3 °F 1024.9 in NE 9.0 mph 10.5 mph 98 % 0.0 in
13:08 2.6 °F 2.3 °F 1024.9 in ENE 6.1 mph 10.8 mph 98 % 0.0 in
13:13 2.7 °F 2.4 °F 1024.9 in NNE 9.7 mph 10.8 mph 98 % 0.0 in
13:18 2.7 °F 2.4 °F 1024.9 in NE 7.2 mph 9.7 mph 98 % 0.0 in
13:23 2.7 °F 2.4 °F 1024.9 in NE 5.8 mph 9.7 mph 98 % 0.0 in
13:28 2.7 °F 2.4 °F 1024.9 in NNE 5.8 mph 10.1 mph 98 % 0.0 in
13:33 2.7 °F 2.4 °F 1024.9 in NE 5.0 mph 10.5 mph 98 % 0.0 in
13:38 2.7 °F 2.4 °F 1024.9 in NE 9.7 mph 12.2 mph 98 % 0.0 in
13:43 2.7 °F 2.4 °F 1024.9 in NE 9.0 mph 12.2 mph 98 % 0.0 in
13:48 2.7 °F 2.4 °F 1024.9 in NE 5.0 mph 11.1 mph 98 % 0.0 in
13:53 2.7 °F 2.4 °F 1024.9 in NE 6.1 mph 11.1 mph 98 % 0.0 in
13:58 2.7 °F 2.4 °F 1024.9 in NE 10.1 mph 10.5 mph 98 % 0.0 in
14:03 2.7 °F 2.4 °F 1024.9 in NE 6.4 mph 11.9 mph 98 % 0.0 in
14:08 2.8 °F 2.6 °F 1024.9 in ENE 6.9 mph 11.9 mph 98 % 0.0 in
14:13 2.9 °F 2.7 °F 1024.9 in NNE 7.9 mph 11.6 mph 98 % 0.0 in
14:18 2.9 °F 2.7 °F 1024.9 in ENE 6.9 mph 11.6 mph 98 % 0.0 in
14:23 2.9 °F 2.7 °F 1024.9 in ENE 7.2 mph 10.1 mph 98 % 0.0 in
14:28 2.9 °F 2.7 °F 1024.9 in NNE 10.5 mph 12.2 mph 98 % 0.0 in
14:33 2.9 °F 2.7 °F 1024.9 in NE 8.7 mph 12.2 mph 98 % 0.0 in
14:38 2.8 °F 2.6 °F 1024.9 in NE 6.9 mph 12.2 mph 98 % 0.0 in
14:43 2.8 °F 2.6 °F 1024.9 in NE 12.2 mph 14.8 mph 98 % 0.0 in
14:48 2.7 °F 2.4 °F 1024.9 in NE 12.6 mph 14.8 mph 98 % 0.0 in
14:53 2.7 °F 2.4 °F 1024.9 in NE 6.9 mph 13.7 mph 98 % 0.0 in
14:58 2.7 °F 2.4 °F 1024.9 in NE 9.7 mph 13.7 mph 98 % 0.0 in
15:03 2.7 °F 2.4 °F 1024.9 in ENE 9.7 mph 15.1 mph 98 % 0.0 in
15:08 2.7 °F 2.4 °F 1024.9 in NNE 9.0 mph 15.1 mph 98 % 0.0 in
15:13 2.7 °F 2.4 °F 1024.9 in NE 9.0 mph 14.0 mph 98 % 0.0 in
15:18 2.7 °F 2.4 °F 1024.9 in NE 9.3 mph 15.1 mph 98 % 0.0 in
15:23 2.7 °F 2.4 °F 1024.9 in NE 6.9 mph 15.1 mph 98 % 0.0 in
15:28 2.7 °F 2.4 °F 1024.9 in NE 9.7 mph 13.0 mph 98 % 0.0 in
15:33 2.7 °F 2.4 °F 1024.9 in ENE 11.9 mph 13.0 mph 98 % 0.0 in
15:38 2.7 °F 2.4 °F 1023.9 in NE 9.3 mph 12.2 mph 98 % 0.0 in
15:43 2.7 °F 2.4 °F 1023.9 in NE 9.3 mph 12.2 mph 98 % 0.0 in
15:48 2.7 °F 2.4 °F 1023.9 in ENE 9.3 mph 13.7 mph 98 % 0.0 in
15:53 2.7 °F 2.4 °F 1023.9 in NNE 10.5 mph 14.0 mph 98 % 0.0 in
15:58 2.7 °F 2.4 °F 1023.9 in East 6.9 mph 14.0 mph 98 % 0.0 in
16:03 2.7 °F 2.4 °F 1023.9 in ENE 10.5 mph 13.7 mph 98 % 0.0 in
16:08 2.7 °F 2.4 °F 1022.9 in NE 6.4 mph 13.0 mph 98 % 0.0 in
16:13 2.7 °F 2.4 °F 1022.9 in ENE 10.5 mph 11.1 mph 98 % 0.0 in
16:18 2.7 °F 2.4 °F 1022.9 in ENE 6.1 mph 11.6 mph 98 % 0.0 in
16:23 2.7 °F 2.4 °F 1022.9 in ENE 6.4 mph 11.6 mph 98 % 0.0 in
16:28 2.8 °F 2.6 °F 1022.9 in ENE 11.1 mph 11.6 mph 98 % 0.0 in
16:33 2.8 °F 2.6 °F 1022.9 in NE 9.0 mph 14.0 mph 98 % 0.0 in
16:38 2.8 °F 2.6 °F 1022.9 in East 8.7 mph 14.0 mph 98 % 0.0 in
16:43 2.8 °F 2.6 °F 1022.9 in ENE 6.4 mph 12.2 mph 98 % 0.0 in
16:48 2.8 °F 2.6 °F 1022.9 in NE 7.9 mph 12.2 mph 98 % 0.0 in
16:53 2.7 °F 2.4 °F 1022.9 in East 5.5 mph 12.2 mph 98 % 0.0 in
16:58 2.7 °F 2.4 °F 1022.9 in ENE 10.1 mph 10.8 mph 98 % 0.0 in
17:03 2.7 °F 2.4 °F 1022.9 in ENE 6.9 mph 12.2 mph 98 % 0.0 in
17:08 2.7 °F 2.4 °F 1022.9 in NE 6.9 mph 12.2 mph 98 % 0.0 in
17:13 2.7 °F 2.4 °F 1022.9 in ESE 7.6 mph 13.0 mph 98 % 0.0 in
17:18 2.7 °F 2.4 °F 1022.9 in NE 5.0 mph 13.0 mph 98 % 0.0 in
17:23 2.7 °F 2.4 °F 1022.9 in ESE 6.1 mph 11.9 mph 98 % 0.0 in
17:28 2.7 °F 2.4 °F 1022.9 in NE 8.7 mph 14.0 mph 98 % 0.0 in
17:33 2.6 °F 2.3 °F 1022.9 in East 9.0 mph 14.0 mph 98 % 0.0 in
17:38 2.6 °F 2.3 °F 1022.9 in ENE 9.3 mph 11.6 mph 98 % 0.0 in
17:43 2.6 °F 2.3 °F 1022.9 in NE 7.9 mph 11.1 mph 98 % 0.0 in
17:48 2.6 °F 2.3 °F 1022.9 in ENE 7.9 mph 10.1 mph 98 % 0.0 in
17:53 2.6 °F 2.3 °F 1022.9 in East 8.7 mph 11.6 mph 98 % 0.0 in
17:58 2.4 °F 2.2 °F 1022.9 in East 8.7 mph 11.6 mph 98 % 0.0 in
18:03 2.4 °F 2.2 °F 1022.9 in ENE 9.0 mph 13.0 mph 98 % 0.0 in
18:08 2.4 °F 2.2 °F 1022.9 in East 9.3 mph 13.0 mph 98 % 0.0 in
18:13 2.3 °F 2.1 °F 1022.9 in East 6.4 mph 11.6 mph 98 % 0.0 in
18:18 2.3 °F 2.1 °F 1022.9 in ENE 10.5 mph 12.2 mph 98 % 0.0 in
18:23 2.3 °F 2.1 °F 1022.9 in ENE 5.5 mph 12.2 mph 98 % 0.0 in
18:28 2.3 °F 2.1 °F 1022.9 in East 6.9 mph 11.1 mph 98 % 0.0 in
18:33 2.3 °F 2.1 °F 1022.9 in East 7.9 mph 9.3 mph 98 % 0.0 in
18:38 2.3 °F 2.1 °F 1022.9 in ENE 13.0 mph 13.0 mph 98 % 0.0 in
18:43 2.3 °F 1.9 °F 1022.9 in ESE 11.9 mph 13.0 mph 98 % 0.0 in
18:48 2.3 °F 1.9 °F 1022.9 in ENE 9.7 mph 13.7 mph 98 % 0.0 in
18:53 2.2 °F 1.9 °F 1022.9 in ENE 4.3 mph 13.7 mph 98 % 0.0 in
18:58 2.2 °F 1.9 °F 1022.9 in NE 7.9 mph 12.6 mph 98 % 0.0 in
19:03 2.1 °F 1.8 °F 1022.9 in North 7.9 mph 12.2 mph 98 % 0.0 in
19:06 2.1 °F 1.8 °F 1022.9 in East 6.9 mph 12.2 mph 98 % 0.0 in
19:11 2.1 °F 1.8 °F 1022.9 in East 11.9 mph 14.0 mph 98 % 0.0 in
19:16 1.9 °F 1.7 °F 1022.9 in East 9.7 mph 14.0 mph 98 % 0.0 in
19:21 1.9 °F 1.7 °F 1022.9 in East 9.0 mph 13.0 mph 98 % 0.0 in
19:26 1.9 °F 1.6 °F 1022.9 in East 6.4 mph 13.0 mph 98 % 0.0 in
19:31 1.9 °F 1.6 °F 1022.9 in East 9.0 mph 10.5 mph 98 % 0.0 in
19:36 1.9 °F 1.6 °F 1022.9 in East 6.4 mph 10.5 mph 98 % 0.0 in
19:41 1.9 °F 1.6 °F 1022.9 in East 8.7 mph 10.5 mph 98 % 0.0 in
19:46 1.9 °F 1.6 °F 1022.9 in ENE 9.3 mph 10.5 mph 98 % 0.0 in
19:51 1.9 °F 1.6 °F 1022.9 in East 4.3 mph 10.5 mph 98 % 0.0 in
19:56 1.9 °F 1.6 °F 1022.9 in East 6.4 mph 9.3 mph 98 % 0.0 in
20:01 1.8 °F 1.5 °F 1022.9 in East 8.7 mph 11.6 mph 98 % 0.0 in
20:06 1.8 °F 1.5 °F 1022.9 in ENE 6.9 mph 12.2 mph 98 % 0.0 in
20:11 1.8 °F 1.5 °F 1022.9 in ESE 5.0 mph 12.2 mph 98 % 0.0 in
20:16 1.8 °F 1.5 °F 1022.9 in ESE 7.9 mph 9.7 mph 98 % 0.0 in
20:21 1.8 °F 1.5 °F 1022.9 in ENE 4.7 mph 9.3 mph 98 % 0.0 in
20:26 1.8 °F 1.5 °F 1022.9 in ENE 6.4 mph 9.7 mph 98 % 0.0 in
20:31 1.9 °F 1.6 °F 1022.9 in East 6.4 mph 9.7 mph 98 % 0.0 in
20:35 1.9 °F 1.6 °F 1022.9 in NE 10.1 mph 10.5 mph 98 % 0.0 in
20:41 1.8 °F 1.5 °F 1022.9 in ENE 10.1 mph 12.6 mph 98 % 0.0 in
20:46 1.8 °F 1.5 °F 1022.9 in NNE 10.5 mph 16.6 mph 98 % 0.0 in
20:51 1.9 °F 1.6 °F 1022.9 in East 7.9 mph 16.6 mph 98 % 0.0 in
20:55 1.9 °F 1.6 °F 1022.9 in ENE 10.1 mph 13.0 mph 98 % 0.0 in
21:00 1.9 °F 1.6 °F 1022.9 in ENE 9.3 mph 14.0 mph 98 % 0.0 in
21:05 1.9 °F 1.6 °F 1022.9 in ENE 4.7 mph 14.0 mph 98 % 0.0 in
21:11 1.9 °F 1.6 °F 1022.9 in ENE 6.4 mph 10.5 mph 98 % 0.0 in
21:15 1.9 °F 1.6 °F 1022.9 in NE 9.0 mph 13.7 mph 98 % 0.0 in
21:21 1.9 °F 1.6 °F 1022.9 in NE 8.7 mph 13.7 mph 98 % 0.0 in
21:25 1.9 °F 1.6 °F 1021.9 in ENE 11.9 mph 14.0 mph 98 % 0.0 in
21:30 1.9 °F 1.6 °F 1021.9 in ENE 4.7 mph 14.0 mph 98 % 0.0 in
21:35 1.9 °F 1.6 °F 1021.9 in ENE 5.0 mph 11.9 mph 98 % 0.0 in
21:40 1.9 °F 1.6 °F 1022.9 in NE 10.1 mph 11.1 mph 98 % 0.0 in
21:45 1.9 °F 1.4 °F 1022.9 in ENE 7.9 mph 13.7 mph 97 % 0.0 in
21:50 1.9 °F 1.4 °F 1022.9 in ENE 8.7 mph 13.7 mph 97 % 0.0 in
21:55 1.9 °F 1.4 °F 1022.9 in NE 9.7 mph 13.0 mph 97 % 0.0 in
22:00 1.8 °F 1.3 °F 1022.9 in NE 10.5 mph 13.0 mph 97 % 0.0 in
22:05 1.9 °F 1.4 °F 1022.9 in ENE 9.7 mph 12.6 mph 97 % 0.0 in
22:10 1.9 °F 1.4 °F 1022.9 in NE 9.3 mph 10.5 mph 97 % 0.0 in
22:15 1.9 °F 1.4 °F 1022.9 in NE 9.0 mph 10.5 mph 97 % 0.0 in
22:20 1.9 °F 1.4 °F 1022.9 in ENE 6.9 mph 10.5 mph 97 % 0.0 in
22:25 1.9 °F 1.4 °F 1022.9 in East 7.9 mph 9.7 mph 97 % 0.0 in
22:27 1.9 °F 1.4 °F 1022.9 in East 7.6 mph 9.7 mph 97 % 0.0 in
22:32 1.9 °F 1.4 °F 1022.9 in ENE 6.9 mph 10.1 mph 97 % 0.0 in
22:37 1.9 °F 1.4 °F 1022.9 in ENE 10.1 mph 10.1 mph 97 % 0.0 in
22:42 1.9 °F 1.4 °F 1022.9 in ENE 6.1 mph 13.7 mph 97 % 0.0 in
22:47 1.9 °F 1.4 °F 1022.9 in ENE 6.4 mph 13.7 mph 97 % 0.0 in
22:52 1.8 °F 1.3 °F 1022.9 in ENE 5.5 mph 9.7 mph 97 % 0.0 in
22:57 1.7 °F 1.2 °F 1022.9 in ENE 10.5 mph 14.0 mph 97 % 0.0 in
23:02 1.7 °F 1.2 °F 1022.9 in East 10.1 mph 14.0 mph 97 % 0.0 in
23:07 1.7 °F 1.2 °F 1022.9 in NE 6.1 mph 12.2 mph 97 % 0.0 in
23:12 1.6 °F 1.2 °F 1022.9 in ENE 8.7 mph 13.0 mph 97 % 0.0 in
23:17 1.4 °F 0.9 °F 1022.9 in ENE 8.7 mph 13.0 mph 97 % 0.0 in
23:22 1.4 °F 0.8 °F 1022.9 in ENE 5.5 mph 10.5 mph 96 % 0.0 in
23:27 1.3 °F 0.7 °F 1021.9 in ENE 9.7 mph 10.5 mph 96 % 0.0 in
23:32 1.2 °F 0.6 °F 1021.9 in NE 9.7 mph 10.5 mph 96 % 0.0 in
23:37 1.1 °F 0.7 °F 1021.9 in NE 8.7 mph 12.2 mph 97 % 0.0 in
23:42 1.1 °F 0.7 °F 1021.9 in NE 5.5 mph 12.6 mph 97 % 0.0 in
23:47 1.0 °F 0.6 °F 1021.9 in North 7.2 mph 12.6 mph 97 % 0.0 in
23:55 0.9 °F 0.4 °F 1022.9 in NNE 1.4 mph 10.5 mph 97 % 0.0 in
Le Gheer Warneton
Courtoisie de Weather Underground - 2.25 mb

Mise a jour : 21/02/2018 11:46:12
Généré par Cumulus 1.9.4 (1099)